createdAt,value
2022-10-02T03:04:38.946Z,1.50
2022-10-02T03:12:03.213Z,2.10
2022-10-02T03:30:13.915Z,1.70
2022-10-02T03:32:46.201Z,2.03
2022-10-02T03:35:14.208Z,2.00
2022-10-02T03:37:47.721Z,2.33
2022-10-02T03:40:14.334Z,2.00
2022-10-02T03:42:40.999Z,1.90
2022-10-02T03:45:08.096Z,2.28
2022-10-02T03:47:34.775Z,2.17
2022-10-02T03:50:01.392Z,1.98
2022-10-02T03:52:31.331Z,2.30
2022-10-02T03:55:03.596Z,2.10
2022-10-02T03:57:33.550Z,2.15
2022-10-02T04:00:09.339Z,3.25
2022-10-02T04:02:45.085Z,1.92
2022-10-02T04:05:17.362Z,2.70
2022-10-02T04:07:52.417Z,2.40
2022-10-02T04:10:41.746Z,2.60
2022-10-02T04:13:14.296Z,2.25
2022-10-02T04:15:59.319Z,2.25
2022-10-02T04:19:12.104Z,2.50
2022-10-02T04:21:44.709Z,2.30
2022-10-02T04:24:14.428Z,2.35
2022-10-02T04:26:58.874Z,2.70
2022-10-02T04:29:55.222Z,2.20
2022-10-02T04:32:27.311Z,3.42
2022-10-02T04:34:54.665Z,2.92
2022-10-02T04:37:47.992Z,2.78
2022-10-02T04:40:17.592Z,2.85
2022-10-02T04:42:56.053Z,2.55
2022-10-02T05:01:56.704Z,2.58
2022-10-02T05:07:32.671Z,1.90
2022-10-02T05:10:23.101Z,4.85
2022-10-02T05:13:28.593Z,2.00
2022-10-02T05:16:00.953Z,2.88
2022-10-02T05:18:45.617Z,1.45
2022-10-02T05:23:57.258Z,1.45
2022-10-02T05:26:32.697Z,2.25
2022-10-02T05:29:25.768Z,2.15
2022-10-02T05:31:58.892Z,2.15
2022-10-02T05:34:25.468Z,2.10
2022-10-02T05:37:14.117Z,1.88
2022-10-02T05:39:49.088Z,2.00
2022-10-02T05:42:33.633Z,2.17
2022-10-02T05:47:41.747Z,1.48
2022-10-02T05:50:21.194Z,1.90
2022-10-02T05:52:47.730Z,2.08
2022-10-02T05:55:27.508Z,1.77
2022-10-02T05:58:06.316Z,2.15
2022-10-02T06:00:42.177Z,1.73
2022-10-02T06:03:15.450Z,2.28
2022-10-02T06:06:02.623Z,2.03
2022-10-02T06:08:32.757Z,2.47
2022-10-02T06:11:08.191Z,2.40
2022-10-02T06:13:44.372Z,2.42
2022-10-02T06:16:34.929Z,2.90
2022-10-02T06:19:12.907Z,1.58
2022-10-02T06:21:49.833Z,1.98
2022-10-02T06:24:30.842Z,1.67
2022-10-02T06:27:37.053Z,1.77
2022-10-02T06:30:11.394Z,1.95
2022-10-02T06:35:15.873Z,1.77
2022-10-02T06:37:58.834Z,1.75
2022-10-02T06:40:45.950Z,2.05
2022-10-02T06:43:24.811Z,1.77
2022-10-02T06:46:07.343Z,1.45
2022-10-02T06:49:05.771Z,2.05
2022-10-02T06:52:16.658Z,1.60
2022-10-02T06:55:01.884Z,2.65
2022-10-02T06:57:49.324Z,2.08
2022-10-02T07:00:21.420Z,1.38
2022-10-02T07:03:23.065Z,1.35
2022-10-02T07:06:02.225Z,1.63
2022-10-02T07:08:44.130Z,1.88
2022-10-02T07:11:43.862Z,3.05
2022-10-02T07:14:30.341Z,2.28
2022-10-02T07:17:12.085Z,2.00
2022-10-02T07:20:16.044Z,1.83
2022-10-02T07:23:12.482Z,1.75
2022-10-02T07:25:42.012Z,2.20
2022-10-02T07:28:17.444Z,1.80
2022-10-02T07:30:56.236Z,1.70
2022-10-02T07:33:36.352Z,2.00
2022-10-02T07:36:12.241Z,1.88
2022-10-02T07:39:14.363Z,1.92
2022-10-02T07:42:09.169Z,2.00
2022-10-02T07:44:57.237Z,2.25
2022-10-02T07:47:35.991Z,2.00
2022-10-02T07:50:41.560Z,2.22
2022-10-02T07:53:25.839Z,2.13
2022-10-02T07:55:54.972Z,1.90
2022-10-02T07:58:39.130Z,1.50
2022-10-02T08:01:16.732Z,2.08
2022-10-02T08:03:55.319Z,1.90
2022-10-02T08:06:22.255Z,1.95
2022-10-02T08:09:26.632Z,1.60
2022-10-02T08:11:59.374Z,1.50
2022-10-02T08:14:42.640Z,1.70
2022-10-02T08:17:41.501Z,1.30
2022-10-02T08:20:33.219Z,1.60
2022-10-02T08:23:15.076Z,1.50
2022-10-02T08:26:02.954Z,1.50
2022-10-02T08:29:12.167Z,1.30
2022-10-02T08:31:39.091Z,1.70
2022-10-02T08:34:23.098Z,1.30
2022-10-02T08:37:08.301Z,1.40
2022-10-02T08:39:57.944Z,1.50
2022-10-02T08:42:45.921Z,1.60
2022-10-02T08:45:25.213Z,1.65
2022-10-02T08:51:13.916Z,1.33
2022-10-02T08:53:44.274Z,1.60
2022-10-02T08:56:24.856Z,1.20
2022-10-02T08:59:00.665Z,1.55
2022-10-02T09:01:48.720Z,1.10
2022-10-02T09:04:46.449Z,1.20
2022-10-02T09:07:51.691Z,1.10
2022-10-02T09:13:45.072Z,1.30
2022-10-02T09:16:34.801Z,1.30
2022-10-02T09:19:49.531Z,2.42
2022-10-02T09:22:39.616Z,1.75
2022-10-02T09:25:33.375Z,1.70
2022-10-02T09:28:17.755Z,2.00
2022-10-02T09:31:17.702Z,1.85
2022-10-02T09:34:22.866Z,3.50
2022-10-02T09:39:54.017Z,1.27
2022-10-02T09:42:40.831Z,1.20
2022-10-02T09:45:38.410Z,1.27
2022-10-02T09:48:17.414Z,1.10
2022-10-02T09:51:44.144Z,1.30
2022-10-02T09:54:50.028Z,1.73
2022-10-02T09:58:05.847Z,1.50
2022-10-02T10:01:05.682Z,1.48
2022-10-02T10:03:46.517Z,2.00
2022-10-02T10:06:39.459Z,1.33
2022-10-02T10:09:40.962Z,1.15
2022-10-02T10:12:10.647Z,2.83
2022-10-02T10:15:39.528Z,2.10
2022-10-02T10:18:43.948Z,1.50
2022-10-02T10:21:10.507Z,2.20
2022-10-02T10:23:57.851Z,2.28
2022-10-02T10:27:07.961Z,1.98
2022-10-02T10:30:04.510Z,5.20
2022-10-02T10:33:00.927Z,2.75
2022-10-02T10:35:59.576Z,4.88
2022-10-02T10:39:01.136Z,1.55
2022-10-02T10:42:25.059Z,2.05
2022-10-02T10:44:51.671Z,1.30
2022-10-02T10:47:24.714Z,1.40
2022-10-02T10:50:20.652Z,1.40
2022-10-02T10:56:20.263Z,2.38
2022-10-02T10:59:08.853Z,2.53
2022-10-02T11:01:44.257Z,1.58
2022-10-02T11:04:49.660Z,1.30
2022-10-02T11:07:25.558Z,1.40
2022-10-02T11:10:23.126Z,1.17
2022-10-02T11:13:16.207Z,1.45
2022-10-02T11:16:06.697Z,1.58
2022-10-02T11:18:40.757Z,1.20
2022-10-02T11:21:17.068Z,1.50
2022-10-02T11:24:01.807Z,1.40
2022-10-02T11:26:52.718Z,0.98
2022-10-02T11:30:03.942Z,1.20
2022-10-02T11:33:10.852Z,1.10
2022-10-02T11:35:48.379Z,1.40
2022-10-02T11:38:24.640Z,0.90
2022-10-02T11:41:01.798Z,0.80
2022-10-02T11:44:01.833Z,1.77
2022-10-02T11:47:00.339Z,3.67
2022-10-02T11:50:01.328Z,1.67
2022-10-02T11:52:47.973Z,1.23
2022-10-02T11:55:31.379Z,1.02
2022-10-02T11:58:27.487Z,1.13
2022-10-02T12:01:08.642Z,1.60
2022-10-02T12:04:20.853Z,1.25
2022-10-02T12:07:08.809Z,0.80
2022-10-02T12:09:59.382Z,0.73
2022-10-02T12:12:54.632Z,1.10
2022-10-02T12:15:42.474Z,0.80
2022-10-02T12:18:32.231Z,0.90
2022-10-02T12:21:32.209Z,1.10
2022-10-02T12:24:23.372Z,1.10
2022-10-02T12:27:11.725Z,0.93
2022-10-02T12:29:47.510Z,1.00
2022-10-02T12:32:53.194Z,1.25
2022-10-02T12:35:44.701Z,1.85
2022-10-02T12:38:40.690Z,1.80
2022-10-02T12:45:10.681Z,1.23
2022-10-02T12:48:18.258Z,1.50
2022-10-02T12:50:52.606Z,1.25
2022-10-02T12:53:45.081Z,1.17
2022-10-02T12:56:42.551Z,1.30
2022-10-02T12:59:15.002Z,1.50
2022-10-02T13:01:44.779Z,1.30
2022-10-02T13:04:34.953Z,1.20
2022-10-02T13:07:01.570Z,1.55
2022-10-02T13:09:46.828Z,1.02
2022-10-02T13:12:42.737Z,5.05
2022-10-02T13:15:25.216Z,2.33
2022-10-02T13:18:35.755Z,1.70
2022-10-02T13:21:39.091Z,1.98
2022-10-02T13:24:22.187Z,1.75
2022-10-02T13:27:06.384Z,1.25
2022-10-02T13:29:52.449Z,1.40
2022-10-02T13:32:28.218Z,1.52
2022-10-02T13:34:57.864Z,1.20
2022-10-02T13:37:36.318Z,1.88
2022-10-02T13:40:18.688Z,2.42
2022-10-02T13:43:06.012Z,1.33
2022-10-02T13:46:02.692Z,2.75
2022-10-02T13:49:01.511Z,2.40
2022-10-02T13:51:54.557Z,1.50
2022-10-02T13:54:47.264Z,2.50
2022-10-02T14:15:58.962Z,3.30
2022-10-02T14:18:49.943Z,2.78
2022-10-02T14:21:37.337Z,3.55
2022-10-02T14:24:53.007Z,2.13
2022-10-02T14:27:51.561Z,2.67
2022-10-02T14:30:45.752Z,2.03
2022-10-02T14:33:42.953Z,2.78
2022-10-02T14:36:44.162Z,1.83
2022-10-02T14:39:35.886Z,2.35
2022-10-02T14:42:08.958Z,2.53
2022-10-02T15:24:04.006Z,1.38
2022-10-02T15:29:29.588Z,1.80
2022-10-02T15:32:08.413Z,1.85
2022-10-02T15:34:52.200Z,2.10
2022-10-02T15:37:45.955Z,3.70
2022-10-02T15:40:21.721Z,2.60
2022-10-02T15:42:58.518Z,2.50
2022-10-02T15:45:44.868Z,3.90
2022-10-02T15:48:43.837Z,3.33
2022-10-02T15:51:28.203Z,3.38
2022-10-02T15:54:11.288Z,5.05
2022-10-02T15:56:56.316Z,3.50
2022-10-02T15:59:31.011Z,2.40
2022-10-02T16:02:00.637Z,3.13
2022-10-02T16:04:46.272Z,2.58
2022-10-02T16:07:45.974Z,3.90
2022-10-02T16:10:25.602Z,3.97
2022-10-02T16:13:17.195Z,2.85
2022-10-02T16:16:21.800Z,2.92
2022-10-02T16:27:19.362Z,3.40
2022-10-02T16:30:13.440Z,3.95
2022-10-02T16:32:58.173Z,2.40
2022-10-02T16:35:30.846Z,2.15
2022-10-02T16:38:00.253Z,2.25
2022-10-02T16:40:44.742Z,4.00
2022-10-02T16:48:50.472Z,2.70
2022-10-02T16:51:21.989Z,4.22
2022-10-02T16:54:01.973Z,4.18
2022-10-02T16:56:51.576Z,2.30
2022-10-02T16:59:40.062Z,2.63
2022-10-02T17:02:20.132Z,2.88
2022-10-02T17:05:03.504Z,4.45
2022-10-02T17:07:49.318Z,3.58
2022-10-02T17:10:21.963Z,4.68
2022-10-02T17:12:53.830Z,5.80
2022-10-02T17:15:42.450Z,6.13
2022-10-02T17:18:21.453Z,6.60
2022-10-02T17:21:07.895Z,5.55
2022-10-02T17:24:01.261Z,4.82
2022-10-02T17:26:40.719Z,4.60
2022-10-02T17:29:13.470Z,6.32
2022-10-02T17:31:53.977Z,4.07
2022-10-02T17:34:26.920Z,1.80
2022-10-02T17:36:56.536Z,2.20
2022-10-02T17:39:43.200Z,2.05
2022-10-02T17:42:41.596Z,2.58
2022-10-02T17:45:47.614Z,3.90
2022-10-02T17:48:40.790Z,4.63
2022-10-02T17:58:47.781Z,4.28
2022-10-02T18:01:26.082Z,6.07
2022-10-02T18:04:02.834Z,4.35
2022-10-02T18:06:47.364Z,4.30
2022-10-02T18:11:40.316Z,4.03
2022-10-02T18:14:28.817Z,5.22
2022-10-02T18:17:04.310Z,7.55
2022-10-02T18:19:54.967Z,8.52
2022-10-02T18:22:51.994Z,8.45
2022-10-02T18:25:56.251Z,7.57
2022-10-02T18:28:25.850Z,6.90
2022-10-02T18:31:08.537Z,5.22
2022-10-02T18:34:33.959Z,5.15
2022-10-02T18:37:20.313Z,5.25
2022-10-02T18:40:14.340Z,6.38
2022-10-02T18:42:55.126Z,4.90
2022-10-02T18:45:48.019Z,6.07
2022-10-02T18:48:31.458Z,7.05
2022-10-02T18:51:09.919Z,8.32
2022-10-02T18:53:54.633Z,6.35
2022-10-02T18:56:39.640Z,5.65
2022-10-02T18:59:44.955Z,8.07
2022-10-02T19:05:17.896Z,5.10
2022-10-02T19:07:52.662Z,5.05
2022-10-02T19:10:39.508Z,5.07
2022-10-02T19:13:12.635Z,4.35
2022-10-02T19:15:45.467Z,4.60
2022-10-02T19:18:33.153Z,4.63
2022-10-02T19:21:19.364Z,6.00
2022-10-02T19:24:01.497Z,4.60
2022-10-02T19:26:33.270Z,4.88
2022-10-02T19:29:25.544Z,5.15
2022-10-02T19:31:54.410Z,4.75
2022-10-02T19:34:30.647Z,5.03
2022-10-02T19:37:07.529Z,4.90
2022-10-02T19:39:43.324Z,5.47
2022-10-02T19:42:34.851Z,4.80
2022-10-02T19:45:11.533Z,4.85
2022-10-02T19:47:47.850Z,6.22
2022-10-02T19:50:40.392Z,5.15
2022-10-02T19:53:21.462Z,4.57
2022-10-02T19:55:55.753Z,4.90
2022-10-02T20:00:52.443Z,4.30
2022-10-02T20:03:24.449Z,4.32
2022-10-02T20:05:55.639Z,4.70
2022-10-02T20:08:28.676Z,5.50
2022-10-02T20:11:09.316Z,4.40
2022-10-02T20:13:52.179Z,4.53
2022-10-02T20:16:42.449Z,4.00
2022-10-02T20:19:22.396Z,3.90
2022-10-02T20:21:53.285Z,4.38
2022-10-02T20:24:50.391Z,4.47
2022-10-02T20:27:46.203Z,5.22
2022-10-02T20:30:17.165Z,4.72
2022-10-02T20:32:50.801Z,4.63
2022-10-02T20:35:25.791Z,5.15
2022-10-02T20:37:55.112Z,4.72
2022-10-02T20:40:27.457Z,4.28
2022-10-02T20:43:11.637Z,4.30
2022-10-02T20:46:46.264Z,5.00
2022-10-02T20:49:40.407Z,4.10
2022-10-02T20:52:14.504Z,3.83
2022-10-02T20:54:54.297Z,4.13
2022-10-02T20:57:38.161Z,4.60
2022-10-02T21:00:19.832Z,4.75
2022-10-02T21:03:13.832Z,4.22
2022-10-02T21:06:02.197Z,4.47
2022-10-02T21:08:28.893Z,3.95
2022-10-02T21:11:13.477Z,4.50
2022-10-02T21:16:58.089Z,3.90
2022-10-02T21:19:30.426Z,5.22
2022-10-02T21:22:15.544Z,3.60
2022-10-02T21:25:09.639Z,3.88
2022-10-02T21:27:54.634Z,4.93
2022-10-02T21:30:22.674Z,3.33
2022-10-02T21:32:56.057Z,4.38
2022-10-02T21:35:37.695Z,6.77
2022-10-02T21:38:32.381Z,4.45
2022-10-02T21:41:19.731Z,4.03
2022-10-02T21:44:00.254Z,6.03
2022-10-02T21:46:35.995Z,4.50
2022-10-02T21:49:24.383Z,3.78
2022-10-02T21:52:09.806Z,3.70
2022-10-02T21:54:39.400Z,3.20
2022-10-02T21:57:17.893Z,3.40
2022-10-02T21:59:59.722Z,3.80
2022-10-02T22:02:44.938Z,3.60
2022-10-02T22:05:27.294Z,3.03
2022-10-02T22:08:12.498Z,2.58
2022-10-02T22:11:12.331Z,3.42
2022-10-02T22:13:43.315Z,4.38
2022-10-02T22:16:28.644Z,2.75
2022-10-02T22:19:17.697Z,2.92
2022-10-02T22:22:05.269Z,2.63
2022-10-02T22:24:50.640Z,2.95
2022-10-02T22:27:20.346Z,2.95
2022-10-02T22:29:52.112Z,2.50
2022-10-02T22:33:02.105Z,2.42
2022-10-02T22:35:50.236Z,2.70
2022-10-02T22:38:22.992Z,3.00
2022-10-02T22:40:58.133Z,2.88
2022-10-02T22:43:50.638Z,2.83
2022-10-02T22:46:41.315Z,2.55
2022-10-02T22:49:29.774Z,2.67
2022-10-02T22:52:07.927Z,3.00
2022-10-02T22:54:51.900Z,3.20
2022-10-02T22:57:37.082Z,3.17
2022-10-02T23:00:23.191Z,3.67
2022-10-02T23:02:52.708Z,2.88
2022-10-02T23:06:15.077Z,3.20
2022-10-02T23:08:51.616Z,2.50
2022-10-02T23:11:26.960Z,2.92
2022-10-02T23:14:06.479Z,2.70
2022-10-02T23:16:41.340Z,2.40
2022-10-02T23:19:42.048Z,2.47
2022-10-02T23:22:20.249Z,2.40
2022-10-02T23:24:58.996Z,2.30
2022-10-02T23:27:51.260Z,2.50
2022-10-02T23:30:20.582Z,2.55
2022-10-02T23:33:00.754Z,2.60
2022-10-02T23:35:39.322Z,2.30
2022-10-02T23:38:28.524Z,2.17
2022-10-02T23:41:37.480Z,2.10
2022-10-02T23:44:19.235Z,2.60
2022-10-02T23:46:51.746Z,2.50
2022-10-02T23:49:31.814Z,2.42
2022-10-02T23:52:38.045Z,3.05
2022-10-02T23:55:26.491Z,2.50
2022-10-02T23:58:27.583Z,2.40
